sensor_id;sensor_type;location;lat;lon;timestamp;pressure;altitude;pressure_sealevel;temperature;humidity
34177;BME280;20450;49.074;9.158;2023-07-16T00:01:49;99547.56;;;20.92;99.45
34177;BME280;20450;49.074;9.158;2023-07-16T00:04:16;99517.13;;;20.89;99.82
34177;BME280;20450;49.074;9.158;2023-07-16T00:06:43;99515.19;;;20.94;100.00
34177;BME280;20450;49.074;9.158;2023-07-16T00:09:11;99528.34;;;20.97;100.00
34177;BME280;20450;49.074;9.158;2023-07-16T00:11:37;99527.22;;;21.03;100.00
34177;BME280;20450;49.074;9.158;2023-07-16T00:14:05;99529.09;;;21.08;100.00
34177;BME280;20450;49.074;9.158;2023-07-16T00:16:33;99546.75;;;20.97;100.00
34177;BME280;20450;49.074;9.158;2023-07-16T00:19:01;99561.44;;;20.62;98.50
34177;BME280;20450;49.074;9.158;2023-07-16T00:21:29;99563.56;;;20.80;100.00
34177;BME280;20450;49.074;9.158;2023-07-16T00:23:55;99567.63;;;20.93;100.00
34177;BME280;20450;49.074;9.158;2023-07-16T00:26:23;99555.50;;;20.94;100.00
34177;BME280;20450;49.074;9.158;2023-07-16T00:28:50;99560.47;;;20.97;100.00
34177;BME280;20450;49.074;9.158;2023-07-16T00:31:17;99571.75;;;20.95;100.00
34177;BME280;20450;49.074;9.158;2023-07-16T00:33:45;99559.69;;;20.86;100.00
34177;BME280;20450;49.074;9.158;2023-07-16T00:36:12;99551.78;;;20.80;100.00
34177;BME280;20450;49.074;9.158;2023-07-16T00:38:41;99545.53;;;20.69;98.87
34177;BME280;20450;49.074;9.158;2023-07-16T00:41:08;99529.56;;;20.71;99.76
34177;BME280;20450;49.074;9.158;2023-07-16T00:43:35;99553.41;;;20.81;98.63
34177;BME280;20450;49.074;9.158;2023-07-16T00:46:03;99547.69;;;20.72;98.71
34177;BME280;20450;49.074;9.158;2023-07-16T00:48:30;99539.94;;;20.84;99.73
34177;BME280;20450;49.074;9.158;2023-07-16T00:51:00;99546.03;;;20.71;96.31
34177;BME280;20450;49.074;9.158;2023-07-16T00:53:29;99537.56;;;20.63;97.49
34177;BME280;20450;49.074;9.158;2023-07-16T00:55:57;99550.50;;;20.57;94.54
34177;BME280;20450;49.074;9.158;2023-07-16T00:58:24;99551.31;;;20.63;96.76
34177;BME280;20450;49.074;9.158;2023-07-16T01:00:54;99528.72;;;20.76;97.58
34177;BME280;20450;49.074;9.158;2023-07-16T01:03:21;99531.16;;;20.82;97.31
34177;BME280;20450;49.074;9.158;2023-07-16T01:05:55;99512.25;;;20.76;95.66
34177;BME280;20450;49.074;9.158;2023-07-16T01:08:32;99547.97;;;20.71;94.95
34177;BME280;20450;49.074;9.158;2023-07-16T01:11:02;99564.69;;;20.74;94.39
34177;BME280;20450;49.074;9.158;2023-07-16T01:13:34;99606.41;;;20.76;93.84
34177;BME280;20450;49.074;9.158;2023-07-16T01:16:02;99595.22;;;20.68;90.48
34177;BME280;20450;49.074;9.158;2023-07-16T01:18:31;99571.03;;;20.70;90.29
34177;BME280;20450;49.074;9.158;2023-07-16T01:21:00;99579.59;;;20.58;91.24
34177;BME280;20450;49.074;9.158;2023-07-16T01:23:50;99587.31;;;20.46;86.98
34177;BME280;20450;49.074;9.158;2023-07-16T01:26:39;99608.16;;;20.52;89.15
34177;BME280;20450;49.074;9.158;2023-07-16T01:29:37;99607.38;;;20.42;88.54
34177;BME280;20450;49.074;9.158;2023-07-16T01:32:11;99612.84;;;20.52;90.04
34177;BME280;20450;49.074;9.158;2023-07-16T01:34:40;99625.13;;;20.59;90.50
34177;BME280;20450;49.074;9.158;2023-07-16T01:37:10;99629.00;;;20.63;89.66
34177;BME280;20450;49.074;9.158;2023-07-16T01:39:37;99626.53;;;20.57;85.05
34177;BME280;20450;49.074;9.158;2023-07-16T01:42:05;99618.59;;;20.55;85.76
34177;BME280;20450;49.074;9.158;2023-07-16T01:44:33;99628.16;;;20.58;86.79
34177;BME280;20450;49.074;9.158;2023-07-16T01:47:09;99636.69;;;20.56;85.40
34177;BME280;20450;49.074;9.158;2023-07-16T01:49:38;99647.41;;;20.53;86.22
34177;BME280;20450;49.074;9.158;2023-07-16T01:52:06;99624.91;;;20.56;86.46
34177;BME280;20450;49.074;9.158;2023-07-16T01:54:34;99614.75;;;20.51;86.94
34177;BME280;20450;49.074;9.158;2023-07-16T01:57:01;99622.44;;;20.54;87.50
34177;BME280;20450;49.074;9.158;2023-07-16T01:59:28;99620.50;;;20.55;85.47
34177;BME280;20450;49.074;9.158;2023-07-16T02:01:56;99623.81;;;20.52;87.21
34177;BME280;20450;49.074;9.158;2023-07-16T02:04:24;99624.34;;;20.54;86.35
34177;BME280;20450;49.074;9.158;2023-07-16T02:06:51;99621.63;;;20.49;84.91
34177;BME280;20450;49.074;9.158;2023-07-16T02:09:21;99633.97;;;20.51;86.62
34177;BME280;20450;49.074;9.158;2023-07-16T02:11:48;99639.75;;;20.50;86.46
34177;BME280;20450;49.074;9.158;2023-07-16T02:14:15;99654.00;;;20.52;85.87
34177;BME280;20450;49.074;9.158;2023-07-16T02:16:43;99657.06;;;20.35;83.70
34177;BME280;20450;49.074;9.158;2023-07-16T02:19:11;99656.25;;;20.35;85.00
34177;BME280;20450;49.074;9.158;2023-07-16T02:21:39;99646.34;;;20.39;85.49
34177;BME280;20450;49.074;9.158;2023-07-16T02:24:06;99641.97;;;20.33;84.90
34177;BME280;20450;49.074;9.158;2023-07-16T02:26:33;99648.00;;;20.35;85.46
34177;BME280;20450;49.074;9.158;2023-07-16T02:29:00;99634.53;;;20.43;86.50
34177;BME280;20450;49.074;9.158;2023-07-16T02:31:27;99636.72;;;20.46;85.79
34177;BME280;20450;49.074;9.158;2023-07-16T02:33:54;99623.28;;;20.50;85.12
34177;BME280;20450;49.074;9.158;2023-07-16T02:36:22;99635.88;;;20.51;84.02
34177;BME280;20450;49.074;9.158;2023-07-16T02:38:50;99631.47;;;20.55;84.08
34177;BME280;20450;49.074;9.158;2023-07-16T02:41:16;99632.59;;;20.54;81.99
34177;BME280;20450;49.074;9.158;2023-07-16T02:43:46;99644.38;;;20.54;83.09
34177;BME280;20450;49.074;9.158;2023-07-16T02:46:13;99652.34;;;20.51;82.58
34177;BME280;20450;49.074;9.158;2023-07-16T02:48:40;99651.84;;;20.39;82.17
34177;BME280;20450;49.074;9.158;2023-07-16T02:51:08;99655.41;;;20.34;83.09
34177;BME280;20450;49.074;9.158;2023-07-16T02:53:36;99676.81;;;20.22;81.81
34177;BME280;20450;49.074;9.158;2023-07-16T02:56:03;99664.78;;;20.23;80.70
34177;BME280;20450;49.074;9.158;2023-07-16T02:58:31;99670.50;;;20.12;82.80
34177;BME280;20450;49.074;9.158;2023-07-16T03:00:59;99667.50;;;20.08;82.50
34177;BME280;20450;49.074;9.158;2023-07-16T03:03:26;99672.19;;;20.03;83.33
34177;BME280;20450;49.074;9.158;2023-07-16T03:06:01;99674.94;;;20.13;83.79
34177;BME280;20450;49.074;9.158;2023-07-16T03:08:29;99683.97;;;20.18;82.96
34177;BME280;20450;49.074;9.158;2023-07-16T03:10:57;99668.59;;;20.27;83.08
34177;BME280;20450;49.074;9.158;2023-07-16T03:13:25;99667.78;;;20.37;83.47
34177;BME280;20450;49.074;9.158;2023-07-16T03:15:53;99662.53;;;20.45;83.63
34177;BME280;20450;49.074;9.158;2023-07-16T03:18:21;99662.25;;;20.52;84.30
34177;BME280;20450;49.074;9.158;2023-07-16T03:20:48;99655.38;;;20.54;83.58
34177;BME280;20450;49.074;9.158;2023-07-16T03:23:15;99661.09;;;20.58;82.30
34177;BME280;20450;49.074;9.158;2023-07-16T03:25:42;99659.47;;;20.57;81.80
34177;BME280;20450;49.074;9.158;2023-07-16T03:28:11;99675.38;;;20.60;81.70
34177;BME280;20450;49.074;9.158;2023-07-16T03:30:37;99684.97;;;20.62;81.98
34177;BME280;20450;49.074;9.158;2023-07-16T03:33:05;99698.72;;;20.57;80.36
34177;BME280;20450;49.074;9.158;2023-07-16T03:35:34;99708.31;;;20.55;81.61
34177;BME280;20450;49.074;9.158;2023-07-16T03:38:01;99702.84;;;20.45;80.44
34177;BME280;20450;49.074;9.158;2023-07-16T03:40:29;99698.47;;;20.44;81.04
34177;BME280;20450;49.074;9.158;2023-07-16T03:42:56;99705.88;;;20.43;80.83
34177;BME280;20450;49.074;9.158;2023-07-16T03:45:25;99707.00;;;20.32;80.56
34177;BME280;20450;49.074;9.158;2023-07-16T03:47:52;99711.94;;;20.35;81.92
34177;BME280;20450;49.074;9.158;2023-07-16T03:50:21;99720.97;;;19.96;80.69
34177;BME280;20450;49.074;9.158;2023-07-16T03:52:48;99711.91;;;19.85;81.36
34177;BME280;20450;49.074;9.158;2023-07-16T03:55:15;99712.19;;;19.79;81.86
34177;BME280;20450;49.074;9.158;2023-07-16T03:57:43;99724.81;;;19.85;82.96
34177;BME280;20450;49.074;9.158;2023-07-16T04:00:11;99735.22;;;19.73;81.86
34177;BME280;20450;49.074;9.158;2023-07-16T04:02:42;99740.13;;;19.66;80.28
34177;BME280;20450;49.074;9.158;2023-07-16T04:05:15;99747.25;;;19.57;81.56
34177;BME280;20450;49.074;9.158;2023-07-16T04:07:42;99754.63;;;19.46;82.16
34177;BME280;20450;49.074;9.158;2023-07-16T04:10:09;99753.28;;;19.64;81.79
34177;BME280;20450;49.074;9.158;2023-07-16T04:12:36;99768.94;;;19.68;80.14
34177;BME280;20450;49.074;9.158;2023-07-16T04:15:07;99778.25;;;19.72;79.57
34177;BME280;20450;49.074;9.158;2023-07-16T04:17:35;99782.88;;;19.57;79.36
34177;BME280;20450;49.074;9.158;2023-07-16T04:20:05;99780.97;;;19.62;79.61
34177;BME280;20450;49.074;9.158;2023-07-16T04:22:34;99777.97;;;19.64;79.01
34177;BME280;20450;49.074;9.158;2023-07-16T04:25:01;99774.94;;;19.70;78.11
34177;BME280;20450;49.074;9.158;2023-07-16T04:27:28;99779.03;;;19.63;79.05
34177;BME280;20450;49.074;9.158;2023-07-16T04:29:55;99779.63;;;19.70;77.31
34177;BME280;20450;49.074;9.158;2023-07-16T04:32:22;99761.81;;;19.77;77.73
34177;BME280;20450;49.074;9.158;2023-07-16T04:34:49;99771.41;;;19.90;77.41
34177;BME280;20450;49.074;9.158;2023-07-16T04:37:19;99771.16;;;19.91;78.03
34177;BME280;20450;49.074;9.158;2023-07-16T04:39:46;99782.66;;;19.83;77.62
34177;BME280;20450;49.074;9.158;2023-07-16T04:42:13;99798.28;;;19.93;77.60
34177;BME280;20450;49.074;9.158;2023-07-16T04:44:40;99784.63;;;20.03;77.29
34177;BME280;20450;49.074;9.158;2023-07-16T04:47:07;99779.97;;;20.13;76.67
34177;BME280;20450;49.074;9.158;2023-07-16T04:49:34;99774.22;;;20.20;76.30
34177;BME280;20450;49.074;9.158;2023-07-16T04:52:02;99786.56;;;20.27;75.27
34177;BME280;20450;49.074;9.158;2023-07-16T04:54:34;99788.78;;;20.35;75.25
34177;BME280;20450;49.074;9.158;2023-07-16T04:57:02;99801.94;;;20.38;74.53
34177;BME280;20450;49.074;9.158;2023-07-16T04:59:30;99811.53;;;20.36;74.81
34177;BME280;20450;49.074;9.158;2023-07-16T05:01:57;99814.81;;;20.33;75.03
34177;BME280;20450;49.074;9.158;2023-07-16T05:04:24;99814.00;;;20.32;75.44
34177;BME280;20450;49.074;9.158;2023-07-16T05:06:51;99807.91;;;20.10;74.11
34177;BME280;20450;49.074;9.158;2023-07-16T05:09:19;99811.53;;;20.16;75.24
34177;BME280;20450;49.074;9.158;2023-07-16T05:11:48;99822.22;;;20.22;74.45
34177;BME280;20450;49.074;9.158;2023-07-16T05:14:15;99825.22;;;20.21;74.76
34177;BME280;20450;49.074;9.158;2023-07-16T05:16:42;99821.69;;;20.30;74.78
34177;BME280;20450;49.074;9.158;2023-07-16T05:19:09;99820.03;;;20.34;74.35
34177;BME280;20450;49.074;9.158;2023-07-16T05:21:37;99818.41;;;20.38;74.60
34177;BME280;20450;49.074;9.158;2023-07-16T05:24:06;99829.94;;;20.45;74.37
34177;BME280;20450;49.074;9.158;2023-07-16T05:26:33;99833.47;;;20.51;73.11
34177;BME280;20450;49.074;9.158;2023-07-16T05:29:06;99831.00;;;20.59;73.01
34177;BME280;20450;49.074;9.158;2023-07-16T05:31:33;99820.31;;;20.38;73.24
34177;BME280;20450;49.074;9.158;2023-07-16T05:34:00;99837.31;;;20.45;73.91
34177;BME280;20450;49.074;9.158;2023-07-16T05:36:27;99835.69;;;20.59;74.38
34177;BME280;20450;49.074;9.158;2023-07-16T05:38:55;99839.53;;;20.43;73.71
34177;BME280;20450;49.074;9.158;2023-07-16T05:41:23;99832.41;;;20.52;74.36
34177;BME280;20450;49.074;9.158;2023-07-16T05:43:50;99835.66;;;20.64;73.74
34177;BME280;20450;49.074;9.158;2023-07-16T05:46:18;99844.47;;;20.66;73.26
34177;BME280;20450;49.074;9.158;2023-07-16T05:48:46;99843.09;;;20.58;73.11
34177;BME280;20450;49.074;9.158;2023-07-16T05:51:13;99839.78;;;20.61;72.91
34177;BME280;20450;49.074;9.158;2023-07-16T05:53:40;99835.41;;;20.45;73.38
34177;BME280;20450;49.074;9.158;2023-07-16T05:56:08;99845.00;;;20.48;74.10
34177;BME280;20450;49.074;9.158;2023-07-16T05:58:35;99850.22;;;20.69;71.74
34177;BME280;20450;49.074;9.158;2023-07-16T06:01:02;99857.63;;;20.79;72.11
34177;BME280;20450;49.074;9.158;2023-07-16T06:03:31;99853.63;;;21.60;69.31
34177;BME280;20450;49.074;9.158;2023-07-16T06:05:58;99856.09;;;22.15;67.36
34177;BME280;20450;49.074;9.158;2023-07-16T06:08:25;99857.75;;;22.11;66.55
34177;BME280;20450;49.074;9.158;2023-07-16T06:10:52;99858.84;;;22.15;66.40
34177;BME280;20450;49.074;9.158;2023-07-16T06:13:23;99855.75;;;22.27;65.58
34177;BME280;20450;49.074;9.158;2023-07-16T06:15:49;99858.03;;;22.53;65.23
34177;BME280;20450;49.074;9.158;2023-07-16T06:18:19;99856.13;;;22.54;63.81
34177;BME280;20450;49.074;9.158;2023-07-16T06:20:49;99860.19;;;22.23;64.53
34177;BME280;20450;49.074;9.158;2023-07-16T06:23:16;99861.91;;;22.09;64.61
34177;BME280;20450;49.074;9.158;2023-07-16T06:25:44;99863.47;;;21.76;64.64
34177;BME280;20450;49.074;9.158;2023-07-16T06:28:11;99861.53;;;21.67;64.95
34177;BME280;20450;49.074;9.158;2023-07-16T06:30:39;99874.22;;;21.58;64.93
34177;BME280;20450;49.074;9.158;2023-07-16T06:33:06;99878.41;;;21.45;66.14
34177;BME280;20450;49.074;9.158;2023-07-16T06:35:34;99873.97;;;21.54;66.19
34177;BME280;20450;49.074;9.158;2023-07-16T06:38:02;99878.91;;;21.57;66.06
34177;BME280;20450;49.074;9.158;2023-07-16T06:40:30;99875.09;;;21.43;65.96
34177;BME280;20450;49.074;9.158;2023-07-16T06:42:57;99887.75;;;21.44;67.35
34177;BME280;20450;49.074;9.158;2023-07-16T06:45:24;99870.97;;;21.51;65.62
34177;BME280;20450;49.074;9.158;2023-07-16T06:47:51;99874.50;;;21.61;65.72
34177;BME280;20450;49.074;9.158;2023-07-16T06:50:18;99875.00;;;21.68;65.48
34177;BME280;20450;49.074;9.158;2023-07-16T06:52:45;99868.13;;;21.81;65.35
34177;BME280;20450;49.074;9.158;2023-07-16T06:55:13;99877.88;;;21.38;64.78
34177;BME280;20450;49.074;9.158;2023-07-16T06:57:40;99866.25;;;21.56;65.47
34177;BME280;20450;49.074;9.158;2023-07-16T07:00:07;99878.91;;;21.57;65.02
34177;BME280;20450;49.074;9.158;2023-07-16T07:02:36;99878.00;;;21.87;64.22
34177;BME280;20450;49.074;9.158;2023-07-16T07:05:04;99873.22;;;22.02;64.04
34177;BME280;20450;49.074;9.158;2023-07-16T07:07:31;99870.81;;;22.34;63.85
34177;BME280;20450;49.074;9.158;2023-07-16T07:09:58;99879.19;;;22.19;62.77
34177;BME280;20450;49.074;9.158;2023-07-16T07:12:27;99885.50;;;22.63;61.48
34177;BME280;20450;49.074;9.158;2023-07-16T07:14:54;99886.69;;;22.86;60.90
34177;BME280;20450;49.074;9.158;2023-07-16T07:17:21;99880.13;;;23.10;59.57
34177;BME280;20450;49.074;9.158;2023-07-16T07:19:48;99896.59;;;23.44;57.27
34177;BME280;20450;49.074;9.158;2023-07-16T07:22:15;99888.72;;;23.80;56.24
34177;BME280;20450;49.074;9.158;2023-07-16T07:24:42;99883.44;;;24.44;54.91
34177;BME280;20450;49.074;9.158;2023-07-16T07:27:12;99873.56;;;25.21;53.46
34177;BME280;20450;49.074;9.158;2023-07-16T07:29:41;99872.09;;;25.82;52.59
34177;BME280;20450;49.074;9.158;2023-07-16T07:32:08;99885.41;;;26.07;51.14
34177;BME280;20450;49.074;9.158;2023-07-16T07:34:36;99889.84;;;26.08;50.49
34177;BME280;20450;49.074;9.158;2023-07-16T07:37:03;99893.00;;;25.88;49.48
34177;BME280;20450;49.074;9.158;2023-07-16T07:39:31;99891.66;;;25.45;50.15
34177;BME280;20450;49.074;9.158;2023-07-16T07:41:58;99897.59;;;25.52;50.62
34177;BME280;20450;49.074;9.158;2023-07-16T07:44:26;99899.69;;;25.60;49.61
34177;BME280;20450;49.074;9.158;2023-07-16T07:46:54;99902.22;;;25.57;48.93
34177;BME280;20450;49.074;9.158;2023-07-16T07:49:21;99904.81;;;25.67;48.19
34177;BME280;20450;49.074;9.158;2023-07-16T07:51:48;99905.19;;;25.33;48.56
34177;BME280;20450;49.074;9.158;2023-07-16T07:54:15;99905.22;;;25.74;48.38
34177;BME280;20450;49.074;9.158;2023-07-16T07:56:45;99899.19;;;25.99;48.48
34177;BME280;20450;49.074;9.158;2023-07-16T07:59:14;99907.06;;;26.05;48.63
34177;BME280;20450;49.074;9.158;2023-07-16T08:01:41;99910.56;;;26.46;47.44
34177;BME280;20450;49.074;9.158;2023-07-16T08:04:10;99927.31;;;26.28;44.25
34177;BME280;20450;49.074;9.158;2023-07-16T08:06:37;99931.00;;;26.37;43.64
34177;BME280;20450;49.074;9.158;2023-07-16T08:09:04;99920.78;;;26.59;43.79
34177;BME280;20450;49.074;9.158;2023-07-16T08:11:31;99923.75;;;25.87;44.58
34177;BME280;20450;49.074;9.158;2023-07-16T08:14:01;99913.84;;;24.94;48.07
34177;BME280;20450;49.074;9.158;2023-07-16T08:16:28;99906.75;;;25.80;49.48
34177;BME280;20450;49.074;9.158;2023-07-16T08:18:57;99906.84;;;25.88;49.10
34177;BME280;20450;49.074;9.158;2023-07-16T08:21:26;99905.69;;;26.30;49.04
34177;BME280;20450;49.074;9.158;2023-07-16T08:23:53;99910.31;;;25.80;45.60
34177;BME280;20450;49.074;9.158;2023-07-16T08:26:20;99889.25;;;24.79;50.87
34177;BME280;20450;49.074;9.158;2023-07-16T08:28:47;99896.59;;;25.48;49.61
34177;BME280;20450;49.074;9.158;2023-07-16T08:31:14;99903.16;;;26.06;46.10
34177;BME280;20450;49.074;9.158;2023-07-16T08:33:42;99900.16;;;26.52;45.40
34177;BME280;20450;49.074;9.158;2023-07-16T08:36:09;99905.09;;;26.55;44.81
34177;BME280;20450;49.074;9.158;2023-07-16T08:38:38;99899.97;;;26.84;44.14
34177;BME280;20450;49.074;9.158;2023-07-16T08:41:05;99903.13;;;26.55;44.21
34177;BME280;20450;49.074;9.158;2023-07-16T08:43:33;99892.31;;;26.45;45.03
34177;BME280;20450;49.074;9.158;2023-07-16T08:46:03;99888.53;;;26.28;45.75
34177;BME280;20450;49.074;9.158;2023-07-16T08:48:33;99902.25;;;26.82;44.86
34177;BME280;20450;49.074;9.158;2023-07-16T08:51:02;99881.78;;;27.22;45.19
34177;BME280;20450;49.074;9.158;2023-07-16T08:53:29;99903.06;;;27.05;42.17
34177;BME280;20450;49.074;9.158;2023-07-16T08:56:00;99893.28;;;27.07;43.86
34177;BME280;20450;49.074;9.158;2023-07-16T08:58:28;99893.31;;;27.16;44.29
34177;BME280;20450;49.074;9.158;2023-07-16T09:00:58;99899.09;;;26.97;44.14
34177;BME280;20450;49.074;9.158;2023-07-16T09:03:27;99912.06;;;27.10;44.08
34177;BME280;20450;49.074;9.158;2023-07-16T09:05:55;99905.84;;;26.47;43.81
34177;BME280;20450;49.074;9.158;2023-07-16T09:08:22;99909.72;;;26.10;45.15
34177;BME280;20450;49.074;9.158;2023-07-16T09:10:53;99907.66;;;25.89;45.28
34177;BME280;20450;49.074;9.158;2023-07-16T09:13:23;99901.81;;;25.63;45.03
34177;BME280;20450;49.074;9.158;2023-07-16T09:15:52;99912.56;;;25.51;45.61
34177;BME280;20450;49.074;9.158;2023-07-16T09:18:20;99910.53;;;25.97;46.45
34177;BME280;20450;49.074;9.158;2023-07-16T09:20:48;99914.56;;;26.40;45.83
34177;BME280;20450;49.074;9.158;2023-07-16T09:23:17;99914.22;;;26.69;44.73
34177;BME280;20450;49.074;9.158;2023-07-16T09:25:44;99917.50;;;26.93;43.60
34177;BME280;20450;49.074;9.158;2023-07-16T09:28:12;99894.88;;;26.42;44.08
34177;BME280;20450;49.074;9.158;2023-07-16T09:30:40;99898.53;;;26.15;44.12
34177;BME280;20450;49.074;9.158;2023-07-16T09:33:12;99909.59;;;25.48;46.34
34177;BME280;20450;49.074;9.158;2023-07-16T09:35:41;99920.50;;;25.98;43.83
34177;BME280;20450;49.074;9.158;2023-07-16T09:38:09;99917.25;;;26.45;43.55
34177;BME280;20450;49.074;9.158;2023-07-16T09:40:37;99907.22;;;26.71;44.04
34177;BME280;20450;49.074;9.158;2023-07-16T09:43:06;99914.22;;;26.91;42.42
34177;BME280;20450;49.074;9.158;2023-07-16T09:45:41;99910.16;;;27.19;42.13
34177;BME280;20450;49.074;9.158;2023-07-16T09:48:09;99910.97;;;27.20;41.07
34177;BME280;20450;49.074;9.158;2023-07-16T09:50:38;99896.13;;;26.94;41.83
34177;BME280;20450;49.074;9.158;2023-07-16T09:53:19;99899.13;;;26.61;41.24
34177;BME280;20450;49.074;9.158;2023-07-16T09:55:56;99888.47;;;26.19;44.32
34177;BME280;20450;49.074;9.158;2023-07-16T09:58:27;99901.16;;;26.69;41.51
34177;BME280;20450;49.074;9.158;2023-07-16T10:00:58;99910.28;;;26.92;41.11
34177;BME280;20450;49.074;9.158;2023-07-16T10:03:28;99901.25;;;27.31;40.72
34177;BME280;20450;49.074;9.158;2023-07-16T10:06:05;99900.38;;;27.44;39.85
34177;BME280;20450;49.074;9.158;2023-07-16T10:08:33;99899.53;;;27.43;40.22
34177;BME280;20450;49.074;9.158;2023-07-16T10:11:01;99887.94;;;27.41;40.37
34177;BME280;20450;49.074;9.158;2023-07-16T10:13:28;99894.16;;;27.16;40.33
34177;BME280;20450;49.074;9.158;2023-07-16T10:15:58;99900.41;;;26.42;40.17
34177;BME280;20450;49.074;9.158;2023-07-16T10:18:26;99888.50;;;24.74;44.00
34177;BME280;20450;49.074;9.158;2023-07-16T10:21:00;99900.81;;;25.46;43.32
34177;BME280;20450;49.074;9.158;2023-07-16T10:23:37;99899.75;;;25.82;41.76
34177;BME280;20450;49.074;9.158;2023-07-16T10:26:06;99900.06;;;25.94;42.31
34177;BME280;20450;49.074;9.158;2023-07-16T10:28:35;99894.50;;;26.35;41.94
34177;BME280;20450;49.074;9.158;2023-07-16T10:31:05;99898.56;;;26.37;40.58
34177;BME280;20450;49.074;9.158;2023-07-16T10:33:32;99895.75;;;26.87;40.63
34177;BME280;20450;49.074;9.158;2023-07-16T10:36:00;99904.44;;;26.71;40.09
34177;BME280;20450;49.074;9.158;2023-07-16T10:38:28;99902.41;;;27.08;39.24
34177;BME280;20450;49.074;9.158;2023-07-16T10:40:56;99900.03;;;26.93;39.63
34177;BME280;20450;49.074;9.158;2023-07-16T10:43:25;99881.06;;;26.86;40.71
34177;BME280;20450;49.074;9.158;2023-07-16T10:45:53;99894.28;;;26.31;39.45
34177;BME280;20450;49.074;9.158;2023-07-16T10:48:26;99880.59;;;26.13;41.63
34177;BME280;20450;49.074;9.158;2023-07-16T10:50:54;99885.03;;;26.36;41.03
34177;BME280;20450;49.074;9.158;2023-07-16T10:53:21;99887.34;;;26.56;40.46
34177;BME280;20450;49.074;9.158;2023-07-16T10:55:48;99879.84;;;26.56;41.24
34177;BME280;20450;49.074;9.158;2023-07-16T10:58:17;99883.38;;;26.48;40.73
34177;BME280;20450;49.074;9.158;2023-07-16T11:00:45;99878.31;;;27.17;39.83
34177;BME280;20450;49.074;9.158;2023-07-16T11:03:14;99886.88;;;27.98;37.46
34177;BME280;20450;49.074;9.158;2023-07-16T11:05:46;99871.16;;;26.94;39.67
34177;BME280;20450;49.074;9.158;2023-07-16T11:08:21;99873.00;;;27.59;38.45
34177;BME280;20450;49.074;9.158;2023-07-16T11:10:53;99874.00;;;28.36;36.71
34177;BME280;20450;49.074;9.158;2023-07-16T11:13:25;99876.31;;;28.60;37.66
34177;BME280;20450;49.074;9.158;2023-07-16T11:15:53;99877.75;;;29.17;35.59
34177;BME280;20450;49.074;9.158;2023-07-16T11:18:22;99876.13;;;29.16;35.22
34177;BME280;20450;49.074;9.158;2023-07-16T11:20:52;99879.09;;;28.43;35.50
34177;BME280;20450;49.074;9.158;2023-07-16T11:23:20;99864.81;;;27.24;37.37
34177;BME280;20450;49.074;9.158;2023-07-16T11:25:47;99854.06;;;28.26;37.99
34177;BME280;20450;49.074;9.158;2023-07-16T11:28:15;99873.88;;;28.58;36.88
34177;BME280;20450;49.074;9.158;2023-07-16T11:30:42;99867.97;;;28.77;37.80
34177;BME280;20450;49.074;9.158;2023-07-16T11:33:11;99867.59;;;28.96;36.27
34177;BME280;20450;49.074;9.158;2023-07-16T11:35:39;99868.53;;;29.34;36.11
34177;BME280;20450;49.074;9.158;2023-07-16T11:38:08;99864.69;;;30.22;34.89
34177;BME280;20450;49.074;9.158;2023-07-16T11:40:35;99875.91;;;31.08;33.02
34177;BME280;20450;49.074;9.158;2023-07-16T11:43:08;99869.94;;;31.30;32.56
34177;BME280;20450;49.074;9.158;2023-07-16T11:45:36;99861.59;;;31.66;33.05
34177;BME280;20450;49.074;9.158;2023-07-16T11:48:04;99863.91;;;31.64;32.79
34177;BME280;20450;49.074;9.158;2023-07-16T11:50:32;99863.22;;;31.55;32.86
34177;BME280;20450;49.074;9.158;2023-07-16T11:53:01;99867.44;;;31.85;33.07
34177;BME280;20450;49.074;9.158;2023-07-16T11:55:33;99872.13;;;31.93;31.24
34177;BME280;20450;49.074;9.158;2023-07-16T11:58:04;99853.44;;;31.61;32.76
34177;BME280;20450;49.074;9.158;2023-07-16T12:00:31;99849.81;;;30.92;32.45
34177;BME280;20450;49.074;9.158;2023-07-16T12:02:59;99832.63;;;31.02;34.07
34177;BME280;20450;49.074;9.158;2023-07-16T12:05:26;99837.50;;;31.61;33.44
34177;BME280;20450;49.074;9.158;2023-07-16T12:08:15;99847.97;;;31.52;32.85
34177;BME280;20450;49.074;9.158;2023-07-16T12:10:44;99839.25;;;31.54;33.02
34177;BME280;20450;49.074;9.158;2023-07-16T12:13:11;99828.78;;;30.20;33.44
34177;BME280;20450;49.074;9.158;2023-07-16T12:15:38;99819.50;;;29.50;35.47
34177;BME280;20450;49.074;9.158;2023-07-16T12:18:06;99811.25;;;29.33;37.49
34177;BME280;20450;49.074;9.158;2023-07-16T12:20:34;99828.13;;;29.65;35.18
34177;BME280;20450;49.074;9.158;2023-07-16T12:23:07;99827.00;;;30.16;34.34
34177;BME280;20450;49.074;9.158;2023-07-16T12:25:35;99809.94;;;30.38;34.63
34177;BME280;20450;49.074;9.158;2023-07-16T12:28:04;99817.69;;;30.53;34.04
34177;BME280;20450;49.074;9.158;2023-07-16T12:30:34;99803.22;;;30.18;34.70
34177;BME280;20450;49.074;9.158;2023-07-16T12:33:03;99802.88;;;29.91;35.47
34177;BME280;20450;49.074;9.158;2023-07-16T12:35:32;99803.69;;;29.33;35.95
34177;BME280;20450;49.074;9.158;2023-07-16T12:38:00;99793.34;;;28.96;36.94
34177;BME280;20450;49.074;9.158;2023-07-16T12:40:29;99797.25;;;29.04;36.92
34177;BME280;20450;49.074;9.158;2023-07-16T12:42:57;99799.09;;;28.91;37.52
34177;BME280;20450;49.074;9.158;2023-07-16T12:45:25;99799.44;;;28.81;37.37
34177;BME280;20450;49.074;9.158;2023-07-16T12:47:52;99799.81;;;28.28;37.28
34177;BME280;20450;49.074;9.158;2023-07-16T12:50:20;99799.34;;;28.52;38.41
34177;BME280;20450;49.074;9.158;2023-07-16T12:52:48;99791.78;;;28.61;37.92
34177;BME280;20450;49.074;9.158;2023-07-16T12:55:15;99783.97;;;28.12;38.49
34177;BME280;20450;49.074;9.158;2023-07-16T12:57:42;99778.56;;;28.24;39.02
34177;BME280;20450;49.074;9.158;2023-07-16T13:00:10;99777.88;;;28.44;39.36
34177;BME280;20450;49.074;9.158;2023-07-16T13:02:39;99774.97;;;28.49;38.86
34177;BME280;20450;49.074;9.158;2023-07-16T13:05:07;99793.75;;;28.35;38.20
34177;BME280;20450;49.074;9.158;2023-07-16T13:07:34;99796.22;;;28.19;38.47